Gulfport, Mississippi
Current Conditions -  °F | °C
As of 7:53 AM on Thursday 30 Oct 2014 (Local Time) from KGPT Reporting Station
Clear Clear  
Wind Chill: 56°   Ceiling: Unl
Heat Index: 56°   Visibility: 10mi
Dew Point: 44°   Wind: 7mph
Humidity: 64%   Direction: 10°N
Pressure: 30.1"   Gusts: NA
Location:  30.38°N, 89.09°W
Report Text: KGPT 301253Z 01006KT 10SM CLR 13/07 A3010 RMK AO2 SLP190 T01330067
Loading
Personal Weather Stations






























Interactive Weather Map
Tropical Storm Tracking
New forecast layout! Learn more

10-Day Weather Forecast

Advertisements
Track Severe Weather on mobile